createdAt,value
2018-09-03T00:00:20.639Z,0
2018-09-03T00:01:22.752Z,0
2018-09-03T00:02:25.233Z,0
2018-09-03T00:03:27.337Z,0
2018-09-03T00:04:29.741Z,0
2018-09-03T00:05:31.847Z,0
2018-09-03T00:06:33.942Z,0
2018-09-03T00:07:36.057Z,0
2018-09-03T00:08:38.164Z,0
2018-09-03T00:09:40.571Z,0
2018-09-03T00:10:42.692Z,0
2018-09-03T00:11:45.375Z,0
2018-09-03T00:12:47.480Z,0
2018-09-03T00:13:49.585Z,0
2018-09-03T00:14:51.696Z,0
2018-09-03T00:15:54.179Z,0
2018-09-03T00:16:56.286Z,0
2018-09-03T00:17:58.394Z,0
2018-09-03T00:19:00.487Z,0
2018-09-03T00:20:02.603Z,0
2018-09-03T00:21:05.277Z,0
2018-09-03T00:22:07.379Z,0
2018-09-03T00:23:09.487Z,0
2018-09-03T00:24:11.603Z,0
2018-09-03T00:25:13.700Z,0
2018-09-03T00:26:16.098Z,0
2018-09-03T00:27:18.207Z,0
2018-09-03T00:28:20.584Z,0
2018-09-03T00:29:22.696Z,0
2018-09-03T00:30:24.799Z,0
2018-09-03T00:31:26.891Z,0
2018-09-03T00:32:28.991Z,0
2018-09-03T00:33:31.490Z,0
2018-09-03T00:34:33.589Z,0
2018-09-03T00:35:35.710Z,0
2018-09-03T00:36:37.809Z,0
2018-09-03T00:37:39.906Z,0
2018-09-03T00:38:42.010Z,0
2018-09-03T00:39:44.510Z,0
2018-09-03T00:40:46.600Z,0
2018-09-03T00:41:48.796Z,0
2018-09-03T00:42:51.192Z,0
2018-09-03T00:43:53.285Z,0
2018-09-03T00:44:55.400Z,0
2018-09-03T00:45:57.496Z,0
2018-09-03T00:46:59.598Z,0
2018-09-03T00:48:01.696Z,0
2018-09-03T00:49:03.808Z,0
2018-09-03T00:50:05.898Z,0
2018-09-03T00:51:08.002Z,0
2018-09-03T00:52:10.114Z,0
2018-09-03T00:53:12.491Z,0
2018-09-03T00:54:14.601Z,0
2018-09-03T00:55:17.012Z,0
2018-09-03T00:56:19.407Z,0
2018-09-03T00:57:21.884Z,0
2018-09-03T00:58:24.286Z,0
2018-09-03T00:59:26.378Z,0
2018-09-03T01:00:28.477Z,0
2018-09-03T01:01:30.591Z,0
2018-09-03T01:02:32.685Z,0
2018-09-03T01:03:34.790Z,0
2018-09-03T01:04:37.191Z,0
2018-09-03T01:05:39.684Z,0
2018-09-03T01:06:41.778Z,0
2018-09-03T01:07:43.875Z,0
2018-09-03T01:08:45.982Z,0
2018-09-03T01:09:48.083Z,0
2018-09-03T01:10:50.561Z,0
2018-09-03T01:11:52.951Z,0
2018-09-03T01:12:55.744Z,0
2018-09-03T01:13:57.835Z,0
2018-09-03T01:14:59.944Z,0
2018-09-03T01:16:02.052Z,0
2018-09-03T01:17:04.146Z,0
2018-09-03T01:18:06.260Z,0
2018-09-03T01:19:08.362Z,0
2018-09-03T01:20:10.762Z,0
2018-09-03T01:21:12.856Z,0
2018-09-03T01:22:14.968Z,0
2018-09-03T01:23:17.061Z,0
2018-09-03T01:24:19.160Z,0
2018-09-03T01:25:21.273Z,0
2018-09-03T01:26:23.365Z,0
2018-09-03T01:27:25.767Z,0
2018-09-03T01:28:27.873Z,0
2018-09-03T01:29:30.504Z,0
2018-09-03T01:30:32.528Z,0
2018-09-03T01:31:34.637Z,0
2018-09-03T01:32:36.733Z,0
2018-09-03T01:33:39.233Z,0
2018-09-03T01:34:41.341Z,0
2018-09-03T01:35:43.438Z,0
2018-09-03T01:36:45.540Z,0
2018-09-03T01:37:47.942Z,0
2018-09-03T01:38:50.046Z,0
2018-09-03T01:39:52.142Z,0
2018-09-03T01:40:54.245Z,0
2018-09-03T01:41:56.735Z,0
2018-09-03T01:42:58.831Z,0
2018-09-03T01:44:00.947Z,0
2018-09-03T01:45:03.344Z,0
2018-09-03T01:46:05.457Z,0
2018-09-03T01:47:07.834Z,0
2018-09-03T01:48:09.938Z,0
2018-09-03T01:49:12.041Z,0
2018-09-03T01:50:14.829Z,0
2018-09-03T01:51:17.590Z,0
2018-09-03T01:52:19.685Z,0
2018-09-03T01:53:22.379Z,0
2018-09-03T01:54:24.471Z,0
2018-09-03T01:55:26.873Z,0
2018-09-03T01:56:28.963Z,0
2018-09-03T01:57:31.063Z,0
2018-09-03T01:58:33.176Z,0
2018-09-03T01:59:35.268Z,0
2018-09-03T02:00:37.383Z,0
2018-09-03T02:01:40.066Z,0
2018-09-03T02:02:42.175Z,0
2018-09-03T02:03:44.264Z,0
2018-09-03T02:04:46.671Z,0
2018-09-03T02:05:48.770Z,0
2018-09-03T02:06:50.870Z,0
2018-09-03T02:07:52.986Z,0
2018-09-03T02:08:55.082Z,0
2018-09-03T02:09:57.182Z,0
2018-09-03T02:10:59.298Z,0
2018-09-03T02:12:01.400Z,0
2018-09-03T02:13:03.492Z,0
2018-09-03T02:14:05.598Z,0
2018-09-03T02:15:07.693Z,0
2018-09-03T02:16:09.801Z,0
2018-09-03T02:17:11.908Z,0
2018-09-03T02:18:14.012Z,0
2018-09-03T02:19:16.104Z,0
2018-09-03T02:20:18.604Z,0
2018-09-03T02:21:20.992Z,0
2018-09-03T02:22:23.093Z,0
2018-09-03T02:23:25.193Z,0
2018-09-03T02:24:27.601Z,0
2018-09-03T02:25:29.700Z,0
2018-09-03T02:26:31.800Z,0
2018-09-03T02:27:34.290Z,0
2018-09-03T02:28:36.402Z,0
2018-09-03T02:29:38.500Z,0
2018-09-03T02:30:40.603Z,0
2018-09-03T02:31:42.714Z,0
2018-09-03T02:32:45.108Z,0
2018-09-03T02:33:47.215Z,0
2018-09-03T02:34:49.315Z,0
2018-09-03T02:35:51.716Z,0
2018-09-03T02:36:53.805Z,0
2018-09-03T02:37:55.924Z,0
2018-09-03T02:38:58.027Z,0
2018-09-03T02:40:00.132Z,0
2018-09-03T02:41:02.246Z,0
2018-09-03T02:42:04.656Z,0
2018-09-03T02:43:07.046Z,0
2018-09-03T02:44:09.157Z,0
2018-09-03T02:45:11.552Z,0
2018-09-03T02:46:13.931Z,0
2018-09-03T02:47:16.325Z,0
2018-09-03T02:48:18.715Z,0
2018-09-03T02:49:20.818Z,0
2018-09-03T02:50:23.319Z,0
2018-09-03T02:51:25.422Z,0
2018-09-03T02:52:27.804Z,0
2018-09-03T02:53:29.923Z,0
2018-09-03T02:54:32.029Z,0
2018-09-03T02:55:34.130Z,0
2018-09-03T02:56:36.243Z,0
2018-09-03T02:57:38.626Z,0
2018-09-03T02:58:40.733Z,0
2018-09-03T02:59:42.837Z,0
2018-09-03T03:00:45.244Z,0
2018-09-03T03:01:47.328Z,0
2018-09-03T03:02:49.448Z,0
2018-09-03T03:03:51.845Z,0
2018-09-03T03:04:53.944Z,0
2018-09-03T03:05:56.456Z,0
2018-09-03T03:06:58.552Z,0
2018-09-03T03:08:00.659Z,0
2018-09-03T03:09:02.756Z,0
2018-09-03T03:10:04.880Z,0
2018-09-03T03:11:06.981Z,0
2018-09-03T03:12:09.376Z,0
2018-09-03T03:13:11.511Z,0
2018-09-03T03:14:13.958Z,0
2018-09-03T03:15:16.064Z,0
2018-09-03T03:16:18.171Z,0
2018-09-03T03:17:20.861Z,0
2018-09-03T03:18:23.560Z,0
2018-09-03T03:19:25.677Z,0
2018-09-03T03:20:28.076Z,0
2018-09-03T03:21:30.182Z,0
2018-09-03T03:22:32.286Z,0
2018-09-03T03:23:34.378Z,0
2018-09-03T03:24:36.481Z,0
2018-09-03T03:25:38.592Z,0
2018-09-03T03:26:40.989Z,0
2018-09-03T03:27:43.399Z,0
2018-09-03T03:28:46.199Z,0
2018-09-03T03:29:48.579Z,0
2018-09-03T03:30:51.090Z,0
2018-09-03T03:31:53.480Z,0
2018-09-03T03:32:55.912Z,0
2018-09-03T03:33:58.003Z,0
2018-09-03T03:35:00.119Z,0
2018-09-03T03:36:02.500Z,0
2018-09-03T03:37:04.604Z,0
2018-09-03T03:38:06.713Z,0
2018-09-03T03:39:08.818Z,0
2018-09-03T03:40:10.911Z,0
2018-09-03T03:41:13.404Z,0
2018-09-03T03:42:15.505Z,0
2018-09-03T03:43:17.625Z,0
2018-09-03T03:44:19.727Z,0
2018-09-03T03:45:21.824Z,0
2018-09-03T03:46:23.928Z,0
2018-09-03T03:47:26.018Z,0
2018-09-03T03:48:28.185Z,0
2018-09-03T03:49:30.231Z,0
2018-09-03T03:50:32.323Z,0
2018-09-03T03:51:34.423Z,0
2018-09-03T03:52:36.537Z,0
2018-09-03T03:53:38.643Z,0
2018-09-03T03:54:41.069Z,0
2018-09-03T03:55:43.465Z,0
2018-09-03T03:56:45.869Z,0
2018-09-03T03:57:48.278Z,0
2018-09-03T03:58:50.774Z,0
2018-09-03T03:59:53.535Z,0
2018-09-03T04:00:55.641Z,0
2018-09-03T04:01:58.133Z,0
2018-09-03T04:03:01.196Z,0
2018-09-03T04:04:03.988Z,0
2018-09-03T04:05:06.090Z,0
2018-09-03T04:06:08.191Z,0
2018-09-03T04:07:10.291Z,0
2018-09-03T04:08:12.800Z,0
2018-09-03T04:09:14.896Z,0
2018-09-03T04:10:17.011Z,0
2018-09-03T04:11:19.121Z,0
2018-09-03T04:12:21.524Z,0
2018-09-03T04:13:23.636Z,0
2018-09-03T04:14:26.030Z,0
2018-09-03T04:15:28.133Z,0
2018-09-03T04:16:30.618Z,0
2018-09-03T04:17:33.012Z,0
2018-09-03T04:18:35.123Z,0
2018-09-03T04:19:37.230Z,0
2018-09-03T04:20:39.621Z,0
2018-09-03T04:21:41.733Z,0
2018-09-03T04:22:43.841Z,0
2018-09-03T04:23:45.935Z,0
2018-09-03T04:24:48.038Z,0
2018-09-03T04:25:50.146Z,0
2018-09-03T04:26:52.249Z,0
2018-09-03T04:27:54.669Z,0
2018-09-03T04:28:56.863Z,0
2018-09-03T04:29:58.869Z,0
2018-09-03T04:31:00.972Z,0
2018-09-03T04:32:03.085Z,0
2018-09-03T04:33:05.175Z,0
2018-09-03T04:34:07.572Z,0
2018-09-03T04:35:09.680Z,0
2018-09-03T04:36:11.775Z,0
2018-09-03T04:37:13.894Z,0
2018-09-03T04:38:16.292Z,0
2018-09-03T04:39:18.396Z,0
2018-09-03T04:40:20.493Z,0
2018-09-03T04:41:22.617Z,0
2018-09-03T04:42:24.718Z,0
2018-09-03T04:43:27.110Z,0
2018-09-03T04:44:29.223Z,0
2018-09-03T04:45:31.310Z,0
2018-09-03T04:46:33.826Z,0
2018-09-03T04:47:35.923Z,0
2018-09-03T04:48:38.422Z,0
2018-09-03T04:49:40.508Z,0
2018-09-03T04:50:42.621Z,1
2018-09-03T04:51:44.716Z,1
2018-09-03T04:52:47.109Z,1
2018-09-03T04:53:49.522Z,1
2018-09-03T04:54:51.617Z,1
2018-09-03T04:55:53.720Z,1
2018-09-03T04:56:55.809Z,1
2018-09-03T04:57:57.919Z,2
2018-09-03T04:59:00.033Z,2
2018-09-03T05:00:02.538Z,2
2018-09-03T05:01:04.649Z,2
2018-09-03T05:02:06.754Z,2
2018-09-03T05:03:09.245Z,2
2018-09-03T05:04:11.348Z,2
2018-09-03T05:05:13.837Z,2
2018-09-03T05:06:16.240Z,3
2018-09-03T05:07:18.344Z,3
2018-09-03T05:08:20.456Z,3
2018-09-03T05:09:22.846Z,3
2018-09-03T05:10:25.569Z,3
2018-09-03T05:11:27.672Z,3
2018-09-03T05:12:29.777Z,3
2018-09-03T05:13:32.260Z,3
2018-09-03T05:14:34.375Z,3
2018-09-03T05:15:36.487Z,3
2018-09-03T05:16:38.593Z,3
2018-09-03T05:17:40.709Z,3
2018-09-03T05:18:42.796Z,3
2018-09-03T05:19:44.901Z,4
2018-09-03T05:20:47.003Z,4
2018-09-03T05:21:49.111Z,4
2018-09-03T05:22:51.486Z,4
2018-09-03T05:23:53.603Z,4
2018-09-03T05:24:55.703Z,4
2018-09-03T05:25:57.803Z,4
2018-09-03T05:26:59.917Z,4
2018-09-03T05:28:02.010Z,4
2018-09-03T05:29:04.112Z,4
2018-09-03T05:30:06.226Z,4
2018-09-03T05:31:08.386Z,5
2018-09-03T05:32:10.712Z,5
2018-09-03T05:33:12.825Z,5
2018-09-03T05:34:14.918Z,5
2018-09-03T05:35:17.024Z,5
2018-09-03T05:36:19.139Z,6
2018-09-03T05:37:21.236Z,6
2018-09-03T05:38:23.329Z,6
2018-09-03T05:39:25.454Z,6
2018-09-03T05:40:27.870Z,6
2018-09-03T05:41:30.361Z,7
2018-09-03T05:42:32.488Z,7
2018-09-03T05:43:35.248Z,7
2018-09-03T05:44:37.849Z,7
2018-09-03T05:45:39.960Z,7
2018-09-03T05:46:42.073Z,7
2018-09-03T05:47:44.477Z,7
2018-09-03T05:48:46.580Z,8
2018-09-03T05:49:48.679Z,8
2018-09-03T05:50:50.786Z,8
2018-09-03T05:51:53.210Z,8
2018-09-03T05:52:55.306Z,8
2018-09-03T05:53:57.408Z,8
2018-09-03T05:54:59.516Z,7
2018-09-03T05:56:02.310Z,7
2018-09-03T05:57:04.407Z,7
2018-09-03T05:58:06.515Z,6
2018-09-03T05:59:08.630Z,6
2018-09-03T06:00:10.720Z,6
2018-09-03T06:01:13.142Z,6
2018-09-03T06:02:15.259Z,7
2018-09-03T06:03:17.339Z,8
2018-09-03T06:04:19.440Z,9
2018-09-03T06:05:21.548Z,10
2018-09-03T06:06:23.647Z,12
2018-09-03T06:07:25.759Z,14
2018-09-03T06:08:27.861Z,16
2018-09-03T06:09:29.958Z,18
2018-09-03T06:10:32.124Z,19
2018-09-03T06:11:34.452Z,20
2018-09-03T06:12:36.566Z,20
2018-09-03T06:13:38.958Z,20
2018-09-03T06:14:41.056Z,21
2018-09-03T06:15:43.170Z,23
2018-09-03T06:16:45.261Z,26
2018-09-03T06:17:47.688Z,28
2018-09-03T06:18:50.065Z,31
2018-09-03T06:19:52.475Z,35
2018-09-03T06:20:54.567Z,36
2018-09-03T06:21:56.681Z,37
2018-09-03T06:22:59.180Z,38
2018-09-03T06:24:01.275Z,39
2018-09-03T06:25:03.784Z,39
2018-09-03T06:26:06.477Z,40
2018-09-03T06:27:08.581Z,41
2018-09-03T06:28:10.973Z,44
2018-09-03T06:29:13.091Z,45
2018-09-03T06:30:15.193Z,46
2018-09-03T06:31:17.298Z,45
2018-09-03T06:32:19.409Z,45
2018-09-03T06:33:21.506Z,45
2018-09-03T06:34:23.621Z,45
2018-09-03T06:35:25.732Z,45
2018-09-03T06:36:28.222Z,44
2018-09-03T06:37:30.330Z,43
2018-09-03T06:38:32.831Z,41
2018-09-03T06:39:35.217Z,40
2018-09-03T06:40:37.905Z,39
2018-09-03T06:41:40.007Z,39
2018-09-03T06:42:42.101Z,39
2018-09-03T06:43:44.593Z,40
2018-09-03T06:44:46.705Z,40
2018-09-03T06:45:49.209Z,42
2018-09-03T06:46:51.657Z,45
2018-09-03T06:47:54.347Z,48
2018-09-03T06:48:56.455Z,50
2018-09-03T06:49:58.930Z,51
2018-09-03T06:51:01.041Z,51
2018-09-03T06:52:03.146Z,51
2018-09-03T06:53:05.268Z,50
2018-09-03T06:54:07.359Z,49
2018-09-03T06:55:09.470Z,47
2018-09-03T06:56:11.580Z,47
2018-09-03T06:57:13.958Z,46
2018-09-03T06:58:16.471Z,46
2018-09-03T06:59:18.956Z,46
2018-09-03T07:00:21.370Z,45
2018-09-03T07:01:23.475Z,47
2018-09-03T07:02:25.588Z,48
2018-09-03T07:03:27.996Z,50
2018-09-03T07:04:30.103Z,52
2018-09-03T07:05:32.213Z,55
2018-09-03T07:06:34.599Z,55
2018-09-03T07:07:36.715Z,55
2018-09-03T07:08:38.870Z,54
2018-09-03T07:09:40.912Z,53
2018-09-03T07:10:43.017Z,53
2018-09-03T07:11:45.139Z,53
2018-09-03T07:12:47.237Z,54
2018-09-03T07:13:49.375Z,56
2018-09-03T07:14:51.459Z,56
2018-09-03T07:15:53.845Z,57
2018-09-03T07:16:55.948Z,57
2018-09-03T07:17:58.063Z,57
2018-09-03T07:19:00.156Z,57
2018-09-03T07:20:02.260Z,58
2018-09-03T07:21:04.372Z,59
2018-09-03T07:22:06.466Z,59
2018-09-03T07:23:08.585Z,60
2018-09-03T07:24:10.688Z,62
2018-09-03T07:25:12.907Z,64
2018-09-03T07:26:15.007Z,66
2018-09-03T07:27:17.408Z,67
2018-09-03T07:28:19.524Z,70
2018-09-03T07:29:21.633Z,73
2018-09-03T07:30:23.730Z,74
2018-09-03T07:31:25.848Z,77
2018-09-03T07:32:27.953Z,79
2018-09-03T07:33:30.371Z,82
2018-09-03T07:34:32.761Z,84
2018-09-03T07:35:35.731Z,86
2018-09-03T07:36:38.081Z,87
2018-09-03T07:37:40.492Z,89
2018-09-03T07:38:42.995Z,91
2018-09-03T07:39:45.675Z,91
2018-09-03T07:40:47.800Z,91
2018-09-03T07:41:50.291Z,90
2018-09-03T07:42:52.389Z,90
2018-09-03T07:43:54.496Z,90
2018-09-03T07:44:56.614Z,93
2018-09-03T07:45:59.110Z,96
2018-09-03T07:47:01.227Z,99
2018-09-03T07:48:03.626Z,102
2018-09-03T07:49:05.725Z,103
2018-09-03T07:50:08.231Z,105
2018-09-03T07:51:11.758Z,136
2018-09-03T07:52:14.227Z,190
2018-09-03T07:53:16.291Z,151
2018-09-03T07:54:18.399Z,111
2018-09-03T07:55:20.892Z,110
2018-09-03T07:56:23.408Z,120
2018-09-03T07:57:25.514Z,103
2018-09-03T07:58:27.623Z,95
2018-09-03T07:59:29.722Z,91
2018-09-03T08:00:31.846Z,90
2018-09-03T08:01:33.950Z,91
2018-09-03T08:02:36.353Z,93
2018-09-03T08:03:38.778Z,92
2018-09-03T08:04:40.876Z,99
2018-09-03T08:05:42.989Z,96
2018-09-03T08:06:45.100Z,94
2018-09-03T08:07:47.218Z,92
2018-09-03T08:08:49.312Z,98
2018-09-03T08:09:51.432Z,107
2018-09-03T08:10:53.544Z,122
2018-09-03T08:11:55.963Z,138
2018-09-03T08:12:58.148Z,130
2018-09-03T08:14:00.199Z,149
2018-09-03T08:15:02.624Z,184
2018-09-03T08:16:04.740Z,207
2018-09-03T08:17:06.849Z,213
2018-09-03T08:18:08.953Z,238
2018-09-03T08:19:11.357Z,246
2018-09-03T08:20:13.476Z,242
2018-09-03T08:21:15.607Z,239
2018-09-03T08:22:17.730Z,235
2018-09-03T08:23:20.139Z,242
2018-09-03T08:24:22.541Z,257
2018-09-03T08:25:24.677Z,255
2018-09-03T08:26:26.781Z,247
2018-09-03T08:27:29.180Z,244
2018-09-03T08:28:31.593Z,252
2018-09-03T08:29:33.691Z,245
2018-09-03T08:30:36.403Z,241
2018-09-03T08:31:38.907Z,249
2018-09-03T08:32:41.317Z,250
2018-09-03T08:33:43.415Z,234
2018-09-03T08:34:45.541Z,239
2018-09-03T08:35:48.040Z,248
2018-09-03T08:36:50.149Z,249
2018-09-03T08:37:52.587Z,251
2018-09-03T08:38:54.687Z,247
2018-09-03T08:39:56.813Z,244
2018-09-03T08:40:58.909Z,247
2018-09-03T08:42:01.033Z,263
2018-09-03T08:43:03.530Z,252
2018-09-03T08:44:05.645Z,241
2018-09-03T08:45:07.757Z,232
2018-09-03T08:46:10.178Z,241
2018-09-03T08:47:12.287Z,255
2018-09-03T08:48:14.402Z,257
2018-09-03T08:49:16.724Z,245
2018-09-03T08:50:18.843Z,240
2018-09-03T08:51:20.942Z,246
2018-09-03T08:52:23.360Z,254
2018-09-03T08:53:25.464Z,259
2018-09-03T08:54:27.578Z,259
2018-09-03T08:55:29.707Z,251
2018-09-03T08:56:31.826Z,252
2018-09-03T08:57:33.935Z,260
2018-09-03T08:58:36.073Z,266
2018-09-03T08:59:38.190Z,268
2018-09-03T09:00:40.989Z,269
2018-09-03T09:01:43.431Z,259
2018-09-03T09:02:45.538Z,260
2018-09-03T09:03:47.655Z,274
2018-09-03T09:04:49.777Z,265
2018-09-03T09:05:52.309Z,264
2018-09-03T09:06:54.708Z,264
2018-09-03T09:07:56.837Z,270
2018-09-03T09:08:59.246Z,270
2018-09-03T09:10:01.356Z,280
2018-09-03T09:11:03.488Z,281
2018-09-03T09:12:05.602Z,277
2018-09-03T09:13:07.721Z,286
2018-09-03T09:14:10.130Z,279
2018-09-03T09:15:12.324Z,284
2018-09-03T09:16:14.435Z,291
2018-09-03T09:17:16.554Z,298
2018-09-03T09:18:19.357Z,304
2018-09-03T09:19:21.457Z,312
2018-09-03T09:20:23.579Z,294
2018-09-03T09:21:25.693Z,301
2018-09-03T09:22:28.211Z,327
2018-09-03T09:23:30.329Z,317
2018-09-03T09:24:32.457Z,325
2018-09-03T09:25:34.558Z,323
2018-09-03T09:26:36.979Z,304
2018-09-03T09:27:39.100Z,296
2018-09-03T09:28:41.228Z,305
2018-09-03T09:29:43.650Z,312
2018-09-03T09:30:45.763Z,310
2018-09-03T09:31:47.900Z,308
2018-09-03T09:32:50.308Z,309
2018-09-03T09:33:52.423Z,323
2018-09-03T09:34:54.556Z,312
2018-09-03T09:35:56.749Z,300
2018-09-03T09:36:58.789Z,305
2018-09-03T09:38:00.906Z,304
2018-09-03T09:39:03.037Z,302
2018-09-03T09:40:05.145Z,310
2018-09-03T09:41:07.273Z,316
2018-09-03T09:42:09.395Z,306
2018-09-03T09:43:11.899Z,300
2018-09-03T09:44:14.024Z,290
2018-09-03T09:45:16.132Z,291
2018-09-03T09:46:18.265Z,303
2018-09-03T09:47:20.690Z,314
2018-09-03T09:48:23.117Z,311
2018-09-03T09:49:25.234Z,303
2018-09-03T09:50:27.353Z,299
2018-09-03T09:51:29.474Z,308
2018-09-03T09:52:31.866Z,309
2018-09-03T09:53:33.997Z,319
2018-09-03T09:54:36.119Z,299
2018-09-03T09:55:39.594Z,293
2018-09-03T09:56:41.718Z,297
2018-09-03T09:57:44.817Z,294
2018-09-03T09:58:46.941Z,301
2018-09-03T09:59:49.055Z,307
2018-09-03T10:00:51.183Z,305
2018-09-03T10:01:53.610Z,312
2018-09-03T10:02:55.728Z,305
2018-09-03T10:03:57.840Z,303
2018-09-03T10:04:59.975Z,315
2018-09-03T10:06:02.093Z,319
2018-09-03T10:07:04.224Z,321
2018-09-03T10:08:06.633Z,323
2018-09-03T10:09:08.747Z,311
2018-09-03T10:10:10.870Z,304
2018-09-03T10:11:12.994Z,315
2018-09-03T10:12:15.125Z,318
2018-09-03T10:13:17.236Z,316
2018-09-03T10:14:19.363Z,330
2018-09-03T10:15:21.479Z,342
2018-09-03T10:16:24.263Z,328
2018-09-03T10:17:26.410Z,345
2018-09-03T10:18:28.519Z,334
2018-09-03T10:19:30.639Z,336
2018-09-03T10:20:32.761Z,331
2018-09-03T10:21:35.212Z,340
2018-09-03T10:22:37.318Z,332
2018-09-03T10:23:39.442Z,342
2018-09-03T10:24:41.570Z,358
2018-09-03T10:25:43.961Z,351
2018-09-03T10:26:46.094Z,355
2018-09-03T10:27:48.214Z,349
2018-09-03T10:28:50.326Z,327
2018-09-03T10:29:52.444Z,321
2018-09-03T10:30:54.574Z,303
2018-09-03T10:31:56.721Z,303
2018-09-03T10:32:58.826Z,318
2018-09-03T10:34:00.954Z,320
2018-09-03T10:35:03.366Z,320
2018-09-03T10:36:05.489Z,313
2018-09-03T10:37:07.616Z,323
2018-09-03T10:38:09.733Z,311
2018-09-03T10:39:11.849Z,306
2018-09-03T10:40:13.975Z,261
2018-09-03T10:41:16.481Z,225
2018-09-03T10:42:18.617Z,212
2018-09-03T10:43:21.126Z,185
2018-09-03T10:44:23.247Z,158
2018-09-03T10:45:25.361Z,143
2018-09-03T10:46:27.496Z,149
2018-09-03T10:47:29.677Z,149
2018-09-03T10:48:31.733Z,164
2018-09-03T10:49:34.256Z,244
2018-09-03T10:50:36.375Z,299
2018-09-03T10:51:38.802Z,224
2018-09-03T10:52:40.931Z,376
2018-09-03T10:53:43.058Z,301
2018-09-03T10:54:45.551Z,365
2018-09-03T10:55:47.683Z,365
2018-09-03T10:56:50.277Z,337
2018-09-03T10:57:52.795Z,336
2018-09-03T10:58:54.935Z,355
2018-09-03T10:59:57.054Z,365
2018-09-03T11:00:59.461Z,385
2018-09-03T11:02:01.976Z,372
2018-09-03T11:03:04.581Z,354
2018-09-03T11:04:06.739Z,346
2018-09-03T11:05:09.219Z,339
2018-09-03T11:06:11.285Z,336
2018-09-03T11:07:13.707Z,322
2018-09-03T11:08:15.839Z,348
2018-09-03T11:09:17.962Z,352
2018-09-03T11:10:20.089Z,351
2018-09-03T11:11:22.230Z,360
2018-09-03T11:12:24.769Z,341
2018-09-03T11:13:26.890Z,343
2018-09-03T11:14:29.010Z,348
2018-09-03T11:15:31.145Z,333
2018-09-03T11:16:33.263Z,321
2018-09-03T11:17:35.389Z,339
2018-09-03T11:18:37.512Z,336
2018-09-03T11:19:40.087Z,354
2018-09-03T11:20:42.201Z,361
2018-09-03T11:21:44.663Z,343
2018-09-03T11:22:46.600Z,327
2018-09-03T11:23:48.711Z,324
2018-09-03T11:24:52.277Z,334
2018-09-03T11:25:54.790Z,341
2018-09-03T11:26:56.923Z,337
2018-09-03T11:27:59.768Z,347
2018-09-03T11:29:01.903Z,370
2018-09-03T11:30:04.021Z,377
2018-09-03T11:31:06.429Z,369
2018-09-03T11:32:08.572Z,347
2018-09-03T11:33:11.054Z,319
2018-09-03T11:34:13.285Z,336
2018-09-03T11:35:15.418Z,359
2018-09-03T11:36:17.541Z,338
2018-09-03T11:37:19.953Z,326
2018-09-03T11:38:22.078Z,316
2018-09-03T11:39:24.195Z,323
2018-09-03T11:40:26.320Z,336
2018-09-03T11:41:29.131Z,344
2018-09-03T11:42:31.253Z,346
2018-09-03T11:43:33.372Z,342
2018-09-03T11:44:35.798Z,344
2018-09-03T11:45:37.919Z,343
2018-09-03T11:46:40.425Z,337
2018-09-03T11:47:42.555Z,330
2018-09-03T11:48:44.672Z,350
2018-09-03T11:49:46.805Z,344
2018-09-03T11:50:48.936Z,328
2018-09-03T11:51:51.358Z,329
2018-09-03T11:52:58.585Z,332
2018-09-03T11:54:01.083Z,345
2018-09-03T11:55:04.012Z,327
2018-09-03T11:56:06.824Z,326
2018-09-03T11:57:08.936Z,328
2018-09-03T11:58:11.068Z,334
2018-09-03T11:59:13.193Z,324
2018-09-03T12:00:15.318Z,318
2018-09-03T12:01:17.426Z,335
2018-09-03T12:02:19.853Z,360
2018-09-03T12:03:22.371Z,354
2018-09-03T12:04:24.518Z,332
2018-09-03T12:05:26.639Z,321
2018-09-03T12:06:29.176Z,341
2018-09-03T12:07:31.615Z,308
2018-09-03T12:08:33.790Z,125
2018-09-03T12:09:35.915Z,274
2018-09-03T12:10:38.033Z,283
2018-09-03T12:11:40.465Z,288
2018-09-03T12:12:42.582Z,295
2018-09-03T12:13:45.000Z,112
2018-09-03T12:14:47.164Z,314
2018-09-03T12:15:49.293Z,322
2018-09-03T12:16:51.409Z,343
2018-09-03T12:17:53.556Z,356
2018-09-03T12:18:55.681Z,335
2018-09-03T12:19:57.806Z,334
2018-09-03T12:21:00.247Z,143
2018-09-03T12:22:02.351Z,180
2018-09-03T12:23:04.490Z,340
2018-09-03T12:24:06.912Z,325
2018-09-03T12:25:09.048Z,135
2018-09-03T12:26:11.165Z,309
2018-09-03T12:27:13.593Z,318
2018-09-03T12:28:15.726Z,325
2018-09-03T12:29:17.840Z,123
2018-09-03T12:30:19.963Z,116
2018-09-03T12:31:22.647Z,104
2018-09-03T12:32:24.704Z,107
2018-09-03T12:33:26.834Z,123
2018-09-03T12:34:29.231Z,323
2018-09-03T12:35:31.368Z,340
2018-09-03T12:36:33.789Z,333
2018-09-03T12:37:35.911Z,328
2018-09-03T12:38:38.053Z,238
2018-09-03T12:39:40.481Z,320
2018-09-03T12:40:42.605Z,274
2018-09-03T12:41:45.043Z,179
2018-09-03T12:42:47.936Z,94
2018-09-03T12:43:50.254Z,95
2018-09-03T12:44:52.384Z,321
2018-09-03T12:45:54.500Z,312
2018-09-03T12:46:56.629Z,251
2018-09-03T12:47:58.762Z,338
2018-09-03T12:49:00.889Z,108
2018-09-03T12:50:03.047Z,299
2018-09-03T12:51:05.179Z,111
2018-09-03T12:52:07.263Z,103
2018-09-03T12:53:09.387Z,123
2018-09-03T12:54:11.526Z,247
2018-09-03T12:55:13.944Z,120
2018-09-03T12:56:16.468Z,172
2018-09-03T12:57:19.272Z,323
2018-09-03T12:58:21.401Z,321
2018-09-03T12:59:23.521Z,325
2018-09-03T13:00:25.702Z,325
2018-09-03T13:01:27.779Z,312
2018-09-03T13:02:30.196Z,265
2018-09-03T13:03:32.340Z,301
2018-09-03T13:04:34.535Z,308
2018-09-03T13:05:36.628Z,300
2018-09-03T13:06:38.769Z,102
2018-09-03T13:07:40.902Z,285
2018-09-03T13:08:43.403Z,279
2018-09-03T13:09:45.529Z,82
2018-09-03T13:10:47.658Z,73
2018-09-03T13:11:49.768Z,76
2018-09-03T13:12:51.926Z,85
2018-09-03T13:13:54.028Z,89
2018-09-03T13:14:56.144Z,277
2018-09-03T13:15:58.580Z,287
2018-09-03T13:17:00.706Z,283
2018-09-03T13:18:02.832Z,296
2018-09-03T13:19:05.278Z,303
2018-09-03T13:20:07.700Z,289
2018-09-03T13:21:09.818Z,280
2018-09-03T13:22:11.937Z,284
2018-09-03T13:23:14.072Z,187
2018-09-03T13:24:16.484Z,165
2018-09-03T13:25:18.614Z,305
2018-09-03T13:26:20.740Z,161
2018-09-03T13:27:22.853Z,275
2018-09-03T13:28:24.991Z,165
2018-09-03T13:29:27.111Z,161
2018-09-03T13:30:29.232Z,180
2018-09-03T13:31:31.350Z,112
2018-09-03T13:32:33.496Z,167
2018-09-03T13:33:35.924Z,155
2018-09-03T13:34:38.087Z,120
2018-09-03T13:35:40.510Z,103
2018-09-03T13:36:42.622Z,176
2018-09-03T13:37:44.756Z,280
2018-09-03T13:38:46.884Z,262
2018-09-03T13:39:49.009Z,270
2018-09-03T13:40:51.134Z,98
2018-09-03T13:41:53.325Z,93
2018-09-03T13:42:55.387Z,94
2018-09-03T13:43:57.901Z,105
2018-09-03T13:45:00.043Z,98
2018-09-03T13:46:02.478Z,96
2018-09-03T13:47:04.597Z,100
2018-09-03T13:48:06.724Z,106
2018-09-03T13:49:08.831Z,128
2018-09-03T13:50:11.261Z,97
2018-09-03T13:51:14.076Z,116
2018-09-03T13:52:16.213Z,99
2018-09-03T13:53:18.979Z,108
2018-09-03T13:54:22.912Z,189
2018-09-03T13:55:25.032Z,144
2018-09-03T13:56:27.270Z,106
2018-09-03T13:57:29.321Z,147
2018-09-03T13:58:31.540Z,125
2018-09-03T13:59:33.667Z,97
2018-09-03T14:00:35.781Z,89
2018-09-03T14:01:37.965Z,101
2018-09-03T14:02:40.195Z,91
2018-09-03T14:03:42.334Z,86
2018-09-03T14:04:44.878Z,102
2018-09-03T14:05:47.389Z,82
2018-09-03T14:06:49.502Z,151
2018-09-03T14:07:51.623Z,134
2018-09-03T14:08:53.751Z,160
2018-09-03T14:09:56.293Z,120
2018-09-03T14:10:58.389Z,128
2018-09-03T14:12:01.289Z,134
2018-09-03T14:13:03.860Z,146
2018-09-03T14:14:05.894Z,101
2018-09-03T14:15:08.036Z,156
2018-09-03T14:16:10.160Z,182
2018-09-03T14:17:12.280Z,181
2018-09-03T14:18:14.420Z,166
2018-09-03T14:19:16.535Z,222
2018-09-03T14:20:18.666Z,219
2018-09-03T14:21:20.803Z,233
2018-09-03T14:22:23.960Z,134
2018-09-03T14:23:25.980Z,228
2018-09-03T14:24:28.108Z,172
2018-09-03T14:25:30.225Z,218
2018-09-03T14:26:32.347Z,138
2018-09-03T14:27:34.505Z,238
2018-09-03T14:28:37.082Z,203
2018-09-03T14:29:39.565Z,136
2018-09-03T14:30:41.709Z,214
2018-09-03T14:31:43.831Z,213
2018-09-03T14:32:45.953Z,224
2018-09-03T14:33:48.084Z,186
2018-09-03T14:34:50.197Z,188
2018-09-03T14:35:52.329Z,211
2018-09-03T14:36:54.805Z,220
2018-09-03T14:37:56.927Z,208
2018-09-03T14:38:59.037Z,206
2018-09-03T14:40:01.170Z,207
2018-09-03T14:41:03.298Z,189
2018-09-03T14:42:05.415Z,193
2018-09-03T14:43:08.073Z,193
2018-09-03T14:44:10.051Z,185
2018-09-03T14:45:12.830Z,195
2018-09-03T14:46:14.933Z,207